sensor_id;sensor_type;location;lat;lon;timestamp;temperature;humidity
30174;DHT22;16985;50.814;8.530;2024-01-15T00:00:46;0.40;99.90
30174;DHT22;16985;50.814;8.530;2024-01-15T00:03:19;0.50;99.90
30174;DHT22;16985;50.814;8.530;2024-01-15T00:05:45;0.40;99.90
30174;DHT22;16985;50.814;8.530;2024-01-15T00:08:11;0.40;99.90
30174;DHT22;16985;50.814;8.530;2024-01-15T00:10:37;0.40;99.90
30174;DHT22;16985;50.814;8.530;2024-01-15T00:13:04;0.40;99.90
30174;DHT22;16985;50.814;8.530;2024-01-15T00:15:40;0.40;99.90
30174;DHT22;16985;50.814;8.530;2024-01-15T00:18:11;0.40;99.90
30174;DHT22;16985;50.814;8.530;2024-01-15T00:20:37;0.20;99.90
30174;DHT22;16985;50.814;8.530;2024-01-15T00:23:06;0.40;99.90
30174;DHT22;16985;50.814;8.530;2024-01-15T00:25:32;0.40;99.90
30174;DHT22;16985;50.814;8.530;2024-01-15T00:27:57;0.30;99.90
30174;DHT22;16985;50.814;8.530;2024-01-15T00:30:23;0.40;99.90
30174;DHT22;16985;50.814;8.530;2024-01-15T00:32:49;0.30;99.90
30174;DHT22;16985;50.814;8.530;2024-01-15T00:35:15;0.30;99.90
30174;DHT22;16985;50.814;8.530;2024-01-15T00:37:41;0.30;99.90
30174;DHT22;16985;50.814;8.530;2024-01-15T00:40:07;0.30;99.90
30174;DHT22;16985;50.814;8.530;2024-01-15T00:42:34;0.30;99.90
30174;DHT22;16985;50.814;8.530;2024-01-15T00:45:00;0.30;99.90
30174;DHT22;16985;50.814;8.530;2024-01-15T00:47:25;0.30;99.90
30174;DHT22;16985;50.814;8.530;2024-01-15T00:49:51;0.30;99.90
30174;DHT22;16985;50.814;8.530;2024-01-15T00:52:17;0.30;99.90
30174;DHT22;16985;50.814;8.530;2024-01-15T00:54:43;0.30;99.90
30174;DHT22;16985;50.814;8.530;2024-01-15T00:57:09;0.30;99.90
30174;DHT22;16985;50.814;8.530;2024-01-15T00:59:34;0.30;99.90
30174;DHT22;16985;50.814;8.530;2024-01-15T01:02:00;0.30;99.90
30174;DHT22;16985;50.814;8.530;2024-01-15T01:04:27;0.30;99.90
30174;DHT22;16985;50.814;8.530;2024-01-15T01:06:53;0.30;99.90
30174;DHT22;16985;50.814;8.530;2024-01-15T01:09:18;0.30;99.90
30174;DHT22;16985;50.814;8.530;2024-01-15T01:11:44;0.30;99.90
30174;DHT22;16985;50.814;8.530;2024-01-15T01:14:10;0.30;99.90
30174;DHT22;16985;50.814;8.530;2024-01-15T01:16:36;0.30;99.90
30174;DHT22;16985;50.814;8.530;2024-01-15T01:19:05;0.30;99.90
30174;DHT22;16985;50.814;8.530;2024-01-15T01:21:33;0.30;99.90
30174;DHT22;16985;50.814;8.530;2024-01-15T01:23:59;0.30;99.90
30174;DHT22;16985;50.814;8.530;2024-01-15T01:26:25;0.30;99.90
30174;DHT22;16985;50.814;8.530;2024-01-15T01:28:51;0.30;99.90
30174;DHT22;16985;50.814;8.530;2024-01-15T01:31:17;0.30;99.90
30174;DHT22;16985;50.814;8.530;2024-01-15T01:33:43;0.30;99.90
30174;DHT22;16985;50.814;8.530;2024-01-15T01:36:09;0.30;99.90
30174;DHT22;16985;50.814;8.530;2024-01-15T01:38:36;0.30;99.90
30174;DHT22;16985;50.814;8.530;2024-01-15T01:41:03;0.30;99.90
30174;DHT22;16985;50.814;8.530;2024-01-15T01:43:28;0.30;99.90
30174;DHT22;16985;50.814;8.530;2024-01-15T01:45:56;0.30;99.90
30174;DHT22;16985;50.814;8.530;2024-01-15T01:48:24;0.40;99.90
30174;DHT22;16985;50.814;8.530;2024-01-15T01:50:56;0.40;99.90
30174;DHT22;16985;50.814;8.530;2024-01-15T01:53:24;0.40;99.90
30174;DHT22;16985;50.814;8.530;2024-01-15T01:55:51;0.40;99.90
30174;DHT22;16985;50.814;8.530;2024-01-15T01:58:17;0.40;99.90
30174;DHT22;16985;50.814;8.530;2024-01-15T02:00:44;0.40;99.90
30174;DHT22;16985;50.814;8.530;2024-01-15T02:03:10;0.40;99.90
30174;DHT22;16985;50.814;8.530;2024-01-15T02:05:36;0.40;99.90
30174;DHT22;16985;50.814;8.530;2024-01-15T02:08:03;0.40;99.90
30174;DHT22;16985;50.814;8.530;2024-01-15T02:10:28;0.40;99.90
30174;DHT22;16985;50.814;8.530;2024-01-15T02:12:54;0.40;99.90
30174;DHT22;16985;50.814;8.530;2024-01-15T02:15:20;0.40;99.90
30174;DHT22;16985;50.814;8.530;2024-01-15T02:18:12;0.40;99.90
30174;DHT22;16985;50.814;8.530;2024-01-15T02:20:38;0.50;99.90
30174;DHT22;16985;50.814;8.530;2024-01-15T02:23:06;0.40;99.90
30174;DHT22;16985;50.814;8.530;2024-01-15T02:25:33;0.50;99.90
30174;DHT22;16985;50.814;8.530;2024-01-15T02:27:59;0.50;99.90
30174;DHT22;16985;50.814;8.530;2024-01-15T02:30:25;0.50;99.90
30174;DHT22;16985;50.814;8.530;2024-01-15T02:32:52;0.50;99.90
30174;DHT22;16985;50.814;8.530;2024-01-15T02:35:18;0.50;99.90
30174;DHT22;16985;50.814;8.530;2024-01-15T02:37:44;0.50;99.90
30174;DHT22;16985;50.814;8.530;2024-01-15T02:40:10;0.50;99.90
30174;DHT22;16985;50.814;8.530;2024-01-15T02:42:36;0.50;99.90
30174;DHT22;16985;50.814;8.530;2024-01-15T02:45:03;0.50;99.90
30174;DHT22;16985;50.814;8.530;2024-01-15T02:47:29;0.50;99.90
30174;DHT22;16985;50.814;8.530;2024-01-15T02:49:55;0.50;99.90
30174;DHT22;16985;50.814;8.530;2024-01-15T02:52:21;0.50;99.90
30174;DHT22;16985;50.814;8.530;2024-01-15T02:54:46;0.60;99.90
30174;DHT22;16985;50.814;8.530;2024-01-15T02:57:12;0.60;99.90
30174;DHT22;16985;50.814;8.530;2024-01-15T02:59:38;0.60;99.90
30174;DHT22;16985;50.814;8.530;2024-01-15T03:02:04;0.60;99.90
30174;DHT22;16985;50.814;8.530;2024-01-15T03:04:30;0.60;99.90
30174;DHT22;16985;50.814;8.530;2024-01-15T03:06:55;0.60;99.90
30174;DHT22;16985;50.814;8.530;2024-01-15T03:09:21;0.60;99.90
30174;DHT22;16985;50.814;8.530;2024-01-15T03:11:47;0.60;99.90
30174;DHT22;16985;50.814;8.530;2024-01-15T03:14:14;0.60;99.90
30174;DHT22;16985;50.814;8.530;2024-01-15T03:16:40;0.60;99.90
30174;DHT22;16985;50.814;8.530;2024-01-15T03:19:07;0.60;99.90
30174;DHT22;16985;50.814;8.530;2024-01-15T03:21:33;0.60;99.90
30174;DHT22;16985;50.814;8.530;2024-01-15T03:23:58;0.60;99.90
30174;DHT22;16985;50.814;8.530;2024-01-15T03:26:24;0.70;99.90
30174;DHT22;16985;50.814;8.530;2024-01-15T03:28:50;0.70;99.90
30174;DHT22;16985;50.814;8.530;2024-01-15T03:31:17;0.70;99.90
30174;DHT22;16985;50.814;8.530;2024-01-15T03:33:42;0.70;99.90
30174;DHT22;16985;50.814;8.530;2024-01-15T03:36:09;0.70;99.90
30174;DHT22;16985;50.814;8.530;2024-01-15T03:38:41;0.70;99.90
30174;DHT22;16985;50.814;8.530;2024-01-15T03:41:07;0.70;99.90
30174;DHT22;16985;50.814;8.530;2024-01-15T03:43:33;0.70;99.90
30174;DHT22;16985;50.814;8.530;2024-01-15T03:45:59;0.70;99.90
30174;DHT22;16985;50.814;8.530;2024-01-15T03:48:25;0.70;99.90
30174;DHT22;16985;50.814;8.530;2024-01-15T03:50:50;0.70;99.90
30174;DHT22;16985;50.814;8.530;2024-01-15T03:53:16;0.70;99.90
30174;DHT22;16985;50.814;8.530;2024-01-15T03:55:42;0.70;99.90
30174;DHT22;16985;50.814;8.530;2024-01-15T03:58:08;0.70;99.90
30174;DHT22;16985;50.814;8.530;2024-01-15T04:00:34;0.70;99.90
30174;DHT22;16985;50.814;8.530;2024-01-15T04:03:00;0.70;99.90
30174;DHT22;16985;50.814;8.530;2024-01-15T04:05:25;0.70;99.90
30174;DHT22;16985;50.814;8.530;2024-01-15T04:07:51;0.70;99.90
30174;DHT22;16985;50.814;8.530;2024-01-15T04:10:17;0.80;99.90
30174;DHT22;16985;50.814;8.530;2024-01-15T04:12:43;0.70;99.90
30174;DHT22;16985;50.814;8.530;2024-01-15T04:15:12;0.80;99.90
30174;DHT22;16985;50.814;8.530;2024-01-15T04:17:38;0.80;99.90
30174;DHT22;16985;50.814;8.530;2024-01-15T04:20:04;0.80;99.90
30174;DHT22;16985;50.814;8.530;2024-01-15T04:22:33;0.80;99.90
30174;DHT22;16985;50.814;8.530;2024-01-15T04:24:59;0.80;99.90
30174;DHT22;16985;50.814;8.530;2024-01-15T04:27:25;0.80;99.90
30174;DHT22;16985;50.814;8.530;2024-01-15T04:29:51;0.80;99.90
30174;DHT22;16985;50.814;8.530;2024-01-15T04:32:17;0.80;99.90
30174;DHT22;16985;50.814;8.530;2024-01-15T04:34:42;0.80;99.90
30174;DHT22;16985;50.814;8.530;2024-01-15T04:37:08;0.80;99.90
30174;DHT22;16985;50.814;8.530;2024-01-15T04:39:34;0.70;99.90
30174;DHT22;16985;50.814;8.530;2024-01-15T04:42:00;0.80;99.90
30174;DHT22;16985;50.814;8.530;2024-01-15T04:44:26;0.80;99.90
30174;DHT22;16985;50.814;8.530;2024-01-15T04:46:52;0.80;99.90
30174;DHT22;16985;50.814;8.530;2024-01-15T04:49:17;0.80;99.90
30174;DHT22;16985;50.814;8.530;2024-01-15T04:51:43;0.80;99.90
30174;DHT22;16985;50.814;8.530;2024-01-15T04:54:09;0.80;99.90
30174;DHT22;16985;50.814;8.530;2024-01-15T04:56:35;0.80;99.90
30174;DHT22;16985;50.814;8.530;2024-01-15T04:59:01;0.80;99.90
30174;DHT22;16985;50.814;8.530;2024-01-15T05:01:31;0.70;99.90
30174;DHT22;16985;50.814;8.530;2024-01-15T05:03:58;0.80;99.90
30174;DHT22;16985;50.814;8.530;2024-01-15T05:06:24;0.80;99.90
30174;DHT22;16985;50.814;8.530;2024-01-15T05:08:50;0.70;99.90
30174;DHT22;16985;50.814;8.530;2024-01-15T05:11:16;0.80;99.90
30174;DHT22;16985;50.814;8.530;2024-01-15T05:13:42;0.80;99.90
30174;DHT22;16985;50.814;8.530;2024-01-15T05:16:08;0.80;99.90
30174;DHT22;16985;50.814;8.530;2024-01-15T05:18:33;0.80;99.90
30174;DHT22;16985;50.814;8.530;2024-01-15T05:20:59;0.80;99.90
30174;DHT22;16985;50.814;8.530;2024-01-15T05:23:25;0.80;99.90
30174;DHT22;16985;50.814;8.530;2024-01-15T05:25:51;0.80;99.90
30174;DHT22;16985;50.814;8.530;2024-01-15T05:28:16;0.80;99.90
30174;DHT22;16985;50.814;8.530;2024-01-15T05:30:42;0.80;99.90
30174;DHT22;16985;50.814;8.530;2024-01-15T05:33:08;0.80;99.90
30174;DHT22;16985;50.814;8.530;2024-01-15T05:35:34;0.70;99.90
30174;DHT22;16985;50.814;8.530;2024-01-15T05:38:00;0.70;99.90
30174;DHT22;16985;50.814;8.530;2024-01-15T05:40:26;0.80;99.90
30174;DHT22;16985;50.814;8.530;2024-01-15T05:42:52;0.80;99.90
30174;DHT22;16985;50.814;8.530;2024-01-15T05:45:17;0.70;99.90
30174;DHT22;16985;50.814;8.530;2024-01-15T05:47:43;0.80;99.90
30174;DHT22;16985;50.814;8.530;2024-01-15T05:50:09;0.80;99.90
30174;DHT22;16985;50.814;8.530;2024-01-15T05:52:36;0.70;99.90
30174;DHT22;16985;50.814;8.530;2024-01-15T05:55:02;0.70;99.90
30174;DHT22;16985;50.814;8.530;2024-01-15T05:57:28;0.70;99.90
30174;DHT22;16985;50.814;8.530;2024-01-15T05:59:54;0.80;99.90
30174;DHT22;16985;50.814;8.530;2024-01-15T06:02:20;0.70;99.90
30174;DHT22;16985;50.814;8.530;2024-01-15T06:04:45;0.70;99.90
30174;DHT22;16985;50.814;8.530;2024-01-15T06:07:11;0.70;99.90
30174;DHT22;16985;50.814;8.530;2024-01-15T06:09:37;0.70;99.90
30174;DHT22;16985;50.814;8.530;2024-01-15T06:12:04;0.70;99.90
30174;DHT22;16985;50.814;8.530;2024-01-15T06:14:32;0.70;99.90
30174;DHT22;16985;50.814;8.530;2024-01-15T06:16:58;0.70;99.90
30174;DHT22;16985;50.814;8.530;2024-01-15T06:19:23;0.80;99.90
30174;DHT22;16985;50.814;8.530;2024-01-15T06:21:49;0.80;99.90
30174;DHT22;16985;50.814;8.530;2024-01-15T06:24:15;0.80;99.90
30174;DHT22;16985;50.814;8.530;2024-01-15T06:26:43;0.70;99.90
30174;DHT22;16985;50.814;8.530;2024-01-15T06:29:09;0.70;99.90
30174;DHT22;16985;50.814;8.530;2024-01-15T06:31:35;0.70;99.90
30174;DHT22;16985;50.814;8.530;2024-01-15T06:34:01;0.70;99.90
30174;DHT22;16985;50.814;8.530;2024-01-15T06:36:26;0.70;99.90
30174;DHT22;16985;50.814;8.530;2024-01-15T06:38:52;0.80;99.90
30174;DHT22;16985;50.814;8.530;2024-01-15T06:41:18;0.70;99.90
30174;DHT22;16985;50.814;8.530;2024-01-15T06:43:44;0.70;99.90
30174;DHT22;16985;50.814;8.530;2024-01-15T06:46:10;0.70;99.90
30174;DHT22;16985;50.814;8.530;2024-01-15T06:48:36;0.80;99.90
30174;DHT22;16985;50.814;8.530;2024-01-15T06:51:02;0.70;99.90
30174;DHT22;16985;50.814;8.530;2024-01-15T06:53:27;0.70;99.90
30174;DHT22;16985;50.814;8.530;2024-01-15T06:55:53;0.80;99.90
30174;DHT22;16985;50.814;8.530;2024-01-15T06:58:19;0.80;99.90
30174;DHT22;16985;50.814;8.530;2024-01-15T07:00:45;0.80;99.90
30174;DHT22;16985;50.814;8.530;2024-01-15T07:03:11;0.70;99.90
30174;DHT22;16985;50.814;8.530;2024-01-15T07:05:37;0.70;99.90
30174;DHT22;16985;50.814;8.530;2024-01-15T07:08:03;0.70;99.90
30174;DHT22;16985;50.814;8.530;2024-01-15T07:10:29;0.70;99.90
30174;DHT22;16985;50.814;8.530;2024-01-15T07:12:55;0.70;99.90
30174;DHT22;16985;50.814;8.530;2024-01-15T07:15:21;0.70;99.90
30174;DHT22;16985;50.814;8.530;2024-01-15T07:17:47;0.70;99.90
30174;DHT22;16985;50.814;8.530;2024-01-15T07:20:13;0.70;99.90
30174;DHT22;16985;50.814;8.530;2024-01-15T07:22:39;0.70;99.90
30174;DHT22;16985;50.814;8.530;2024-01-15T07:25:05;0.70;99.90
30174;DHT22;16985;50.814;8.530;2024-01-15T07:27:32;0.70;99.90
30174;DHT22;16985;50.814;8.530;2024-01-15T07:29:58;0.70;99.90
30174;DHT22;16985;50.814;8.530;2024-01-15T07:32:24;0.70;99.90
30174;DHT22;16985;50.814;8.530;2024-01-15T07:34:50;0.70;99.90
30174;DHT22;16985;50.814;8.530;2024-01-15T07:37:15;0.70;99.90
30174;DHT22;16985;50.814;8.530;2024-01-15T07:39:41;0.70;99.90
30174;DHT22;16985;50.814;8.530;2024-01-15T07:42:07;0.80;99.90
30174;DHT22;16985;50.814;8.530;2024-01-15T07:44:33;0.80;99.90
30174;DHT22;16985;50.814;8.530;2024-01-15T07:46:59;0.70;99.90
30174;DHT22;16985;50.814;8.530;2024-01-15T07:49:25;0.80;99.90
30174;DHT22;16985;50.814;8.530;2024-01-15T07:51:51;0.80;99.90
30174;DHT22;16985;50.814;8.530;2024-01-15T07:54:17;0.80;99.90
30174;DHT22;16985;50.814;8.530;2024-01-15T07:56:58;0.80;99.90
30174;DHT22;16985;50.814;8.530;2024-01-15T07:59:25;0.80;99.90
30174;DHT22;16985;50.814;8.530;2024-01-15T08:01:52;0.70;99.90
30174;DHT22;16985;50.814;8.530;2024-01-15T08:04:19;0.80;99.90
30174;DHT22;16985;50.814;8.530;2024-01-15T08:06:45;0.80;99.90
30174;DHT22;16985;50.814;8.530;2024-01-15T08:09:11;0.80;99.90
30174;DHT22;16985;50.814;8.530;2024-01-15T08:11:44;0.80;99.90
30174;DHT22;16985;50.814;8.530;2024-01-15T08:14:11;0.80;99.90
30174;DHT22;16985;50.814;8.530;2024-01-15T08:16:37;0.80;99.90
30174;DHT22;16985;50.814;8.530;2024-01-15T08:19:03;0.80;99.90
30174;DHT22;16985;50.814;8.530;2024-01-15T08:21:29;0.80;99.90
30174;DHT22;16985;50.814;8.530;2024-01-15T08:23:59;0.80;99.90
30174;DHT22;16985;50.814;8.530;2024-01-15T08:26:26;0.80;99.90
30174;DHT22;16985;50.814;8.530;2024-01-15T08:28:51;0.80;99.90
30174;DHT22;16985;50.814;8.530;2024-01-15T08:31:17;0.90;99.90
30174;DHT22;16985;50.814;8.530;2024-01-15T08:33:44;0.80;99.90
30174;DHT22;16985;50.814;8.530;2024-01-15T08:36:09;0.90;99.90
30174;DHT22;16985;50.814;8.530;2024-01-15T08:38:35;0.80;99.90
30174;DHT22;16985;50.814;8.530;2024-01-15T08:41:01;0.80;99.90
30174;DHT22;16985;50.814;8.530;2024-01-15T08:43:27;0.90;99.90
30174;DHT22;16985;50.814;8.530;2024-01-15T08:45:53;0.90;99.90
30174;DHT22;16985;50.814;8.530;2024-01-15T08:48:19;0.90;99.90
30174;DHT22;16985;50.814;8.530;2024-01-15T08:50:46;0.90;99.90
30174;DHT22;16985;50.814;8.530;2024-01-15T08:53:12;0.90;99.90
30174;DHT22;16985;50.814;8.530;2024-01-15T08:55:38;0.90;99.90
30174;DHT22;16985;50.814;8.530;2024-01-15T08:58:04;0.90;99.90
30174;DHT22;16985;50.814;8.530;2024-01-15T09:00:31;0.90;99.90
30174;DHT22;16985;50.814;8.530;2024-01-15T09:02:57;1.00;99.90
30174;DHT22;16985;50.814;8.530;2024-01-15T09:05:23;1.00;99.90
30174;DHT22;16985;50.814;8.530;2024-01-15T09:07:49;1.00;99.90
30174;DHT22;16985;50.814;8.530;2024-01-15T09:10:17;1.00;99.90
30174;DHT22;16985;50.814;8.530;2024-01-15T09:12:44;1.00;99.90
30174;DHT22;16985;50.814;8.530;2024-01-15T09:15:10;1.00;99.90
30174;DHT22;16985;50.814;8.530;2024-01-15T09:17:36;1.00;99.90
30174;DHT22;16985;50.814;8.530;2024-01-15T09:20:01;1.10;99.90
30174;DHT22;16985;50.814;8.530;2024-01-15T09:22:30;1.00;99.90
30174;DHT22;16985;50.814;8.530;2024-01-15T09:24:55;1.00;99.90
30174;DHT22;16985;50.814;8.530;2024-01-15T09:27:21;1.00;99.90
30174;DHT22;16985;50.814;8.530;2024-01-15T09:29:47;1.00;99.90
30174;DHT22;16985;50.814;8.530;2024-01-15T09:32:13;1.10;99.90
30174;DHT22;16985;50.814;8.530;2024-01-15T09:34:39;1.00;99.90
30174;DHT22;16985;50.814;8.530;2024-01-15T09:37:05;1.00;99.90
30174;DHT22;16985;50.814;8.530;2024-01-15T09:39:31;1.00;99.90
30174;DHT22;16985;50.814;8.530;2024-01-15T09:42:01;1.10;99.90
30174;DHT22;16985;50.814;8.530;2024-01-15T09:44:27;1.10;99.90
30174;DHT22;16985;50.814;8.530;2024-01-15T09:46:55;1.10;99.90
30174;DHT22;16985;50.814;8.530;2024-01-15T09:49:21;1.10;99.90
30174;DHT22;16985;50.814;8.530;2024-01-15T09:51:47;1.10;99.90
30174;DHT22;16985;50.814;8.530;2024-01-15T09:54:13;1.20;99.90
30174;DHT22;16985;50.814;8.530;2024-01-15T09:56:46;1.20;99.90
30174;DHT22;16985;50.814;8.530;2024-01-15T09:59:19;1.20;99.90
30174;DHT22;16985;50.814;8.530;2024-01-15T10:01:45;1.20;99.90
30174;DHT22;16985;50.814;8.530;2024-01-15T10:04:13;1.20;99.90
30174;DHT22;16985;50.814;8.530;2024-01-15T10:06:43;1.30;99.90
30174;DHT22;16985;50.814;8.530;2024-01-15T10:09:12;1.20;99.90
30174;DHT22;16985;50.814;8.530;2024-01-15T10:11:42;1.30;99.90
30174;DHT22;16985;50.814;8.530;2024-01-15T10:14:12;1.30;99.90
30174;DHT22;16985;50.814;8.530;2024-01-15T10:16:42;1.40;99.90
30174;DHT22;16985;50.814;8.530;2024-01-15T10:19:08;1.40;99.90
30174;DHT22;16985;50.814;8.530;2024-01-15T10:21:35;1.50;99.90
30174;DHT22;16985;50.814;8.530;2024-01-15T10:24:02;1.50;99.90
30174;DHT22;16985;50.814;8.530;2024-01-15T10:26:29;1.50;99.90
30174;DHT22;16985;50.814;8.530;2024-01-15T10:28:55;1.50;99.90
30174;DHT22;16985;50.814;8.530;2024-01-15T10:31:21;1.50;99.90
30174;DHT22;16985;50.814;8.530;2024-01-15T10:33:50;1.50;99.90
30174;DHT22;16985;50.814;8.530;2024-01-15T10:36:17;1.50;99.90
30174;DHT22;16985;50.814;8.530;2024-01-15T10:38:44;1.50;99.90
30174;DHT22;16985;50.814;8.530;2024-01-15T10:41:10;1.50;99.90
30174;DHT22;16985;50.814;8.530;2024-01-15T10:43:36;1.50;99.90
30174;DHT22;16985;50.814;8.530;2024-01-15T10:46:03;1.50;99.90
30174;DHT22;16985;50.814;8.530;2024-01-15T10:48:29;1.40;99.90
30174;DHT22;16985;50.814;8.530;2024-01-15T10:50:57;1.50;99.90
30174;DHT22;16985;50.814;8.530;2024-01-15T10:53:24;1.50;99.90
30174;DHT22;16985;50.814;8.530;2024-01-15T10:55:54;1.40;99.90
30174;DHT22;16985;50.814;8.530;2024-01-15T10:58:23;1.40;99.90
30174;DHT22;16985;50.814;8.530;2024-01-15T11:00:49;1.40;99.90
30174;DHT22;16985;50.814;8.530;2024-01-15T11:03:16;1.40;99.90
30174;DHT22;16985;50.814;8.530;2024-01-15T11:05:46;1.40;99.90
30174;DHT22;16985;50.814;8.530;2024-01-15T11:08:13;1.50;99.90
30174;DHT22;16985;50.814;8.530;2024-01-15T11:10:47;1.50;99.90
30174;DHT22;16985;50.814;8.530;2024-01-15T11:13:15;1.50;99.90
30174;DHT22;16985;50.814;8.530;2024-01-15T11:18:35;1.50;99.90
30174;DHT22;16985;50.814;8.530;2024-01-15T11:23:57;1.50;99.90
30174;DHT22;16985;50.814;8.530;2024-01-15T11:26:46;1.50;99.90
30174;DHT22;16985;50.814;8.530;2024-01-15T11:31:58;1.40;99.90
30174;DHT22;16985;50.814;8.530;2024-01-15T11:37:18;1.40;99.90
30174;DHT22;16985;50.814;8.530;2024-01-15T11:39:44;1.40;99.90
30174;DHT22;16985;50.814;8.530;2024-01-15T11:42:12;1.50;99.90
30174;DHT22;16985;50.814;8.530;2024-01-15T11:44:39;1.40;99.90
30174;DHT22;16985;50.814;8.530;2024-01-15T11:47:09;1.40;99.90
30174;DHT22;16985;50.814;8.530;2024-01-15T11:49:59;1.40;99.90
30174;DHT22;16985;50.814;8.530;2024-01-15T11:52:39;1.50;99.90
30174;DHT22;16985;50.814;8.530;2024-01-15T11:57:54;1.60;99.90
30174;DHT22;16985;50.814;8.530;2024-01-15T12:00:21;1.60;99.90
30174;DHT22;16985;50.814;8.530;2024-01-15T12:02:48;1.60;99.90
30174;DHT22;16985;50.814;8.530;2024-01-15T12:05:16;1.70;99.90
30174;DHT22;16985;50.814;8.530;2024-01-15T12:07:43;1.70;99.90
30174;DHT22;16985;50.814;8.530;2024-01-15T12:10:11;1.70;99.90
30174;DHT22;16985;50.814;8.530;2024-01-15T12:13:00;1.70;99.90
30174;DHT22;16985;50.814;8.530;2024-01-15T12:15:31;1.60;99.90
30174;DHT22;16985;50.814;8.530;2024-01-15T12:17:59;1.60;99.90
30174;DHT22;16985;50.814;8.530;2024-01-15T12:20:28;1.60;99.90
30174;DHT22;16985;50.814;8.530;2024-01-15T12:22:55;1.60;99.90
30174;DHT22;16985;50.814;8.530;2024-01-15T12:25:22;1.60;99.90
30174;DHT22;16985;50.814;8.530;2024-01-15T12:27:49;1.60;99.90
30174;DHT22;16985;50.814;8.530;2024-01-15T12:30:17;1.70;99.90
30174;DHT22;16985;50.814;8.530;2024-01-15T12:32:43;1.70;99.90
30174;DHT22;16985;50.814;8.530;2024-01-15T12:35:10;1.70;99.90
30174;DHT22;16985;50.814;8.530;2024-01-15T12:37:38;1.70;99.90
30174;DHT22;16985;50.814;8.530;2024-01-15T12:40:06;1.70;99.90
30174;DHT22;16985;50.814;8.530;2024-01-15T12:42:33;1.70;99.90
30174;DHT22;16985;50.814;8.530;2024-01-15T12:45:03;1.70;99.90
30174;DHT22;16985;50.814;8.530;2024-01-15T12:47:31;1.70;99.90
30174;DHT22;16985;50.814;8.530;2024-01-15T12:49:58;1.70;99.90
30174;DHT22;16985;50.814;8.530;2024-01-15T12:52:29;1.80;99.90
30174;DHT22;16985;50.814;8.530;2024-01-15T12:54:56;1.70;99.90
30174;DHT22;16985;50.814;8.530;2024-01-15T12:57:22;1.70;99.90
30174;DHT22;16985;50.814;8.530;2024-01-15T12:59:49;1.80;99.90
30174;DHT22;16985;50.814;8.530;2024-01-15T13:02:15;1.80;99.90
30174;DHT22;16985;50.814;8.530;2024-01-15T13:04:42;1.80;99.90
30174;DHT22;16985;50.814;8.530;2024-01-15T13:07:08;1.80;99.90
30174;DHT22;16985;50.814;8.530;2024-01-15T13:09:35;1.80;99.90
30174;DHT22;16985;50.814;8.530;2024-01-15T13:12:02;1.70;99.90
30174;DHT22;16985;50.814;8.530;2024-01-15T13:14:28;1.70;99.90
30174;DHT22;16985;50.814;8.530;2024-01-15T13:16:54;1.80;99.90
30174;DHT22;16985;50.814;8.530;2024-01-15T13:19:21;1.80;99.90
30174;DHT22;16985;50.814;8.530;2024-01-15T13:21:48;1.80;99.90
30174;DHT22;16985;50.814;8.530;2024-01-15T13:24:15;1.80;99.90
30174;DHT22;16985;50.814;8.530;2024-01-15T13:26:41;1.80;99.90
30174;DHT22;16985;50.814;8.530;2024-01-15T13:29:07;1.80;99.90
30174;DHT22;16985;50.814;8.530;2024-01-15T13:31:33;1.80;99.90
30174;DHT22;16985;50.814;8.530;2024-01-15T13:33:59;1.80;99.90
30174;DHT22;16985;50.814;8.530;2024-01-15T13:36:28;1.80;99.90
30174;DHT22;16985;50.814;8.530;2024-01-15T13:38:54;1.80;99.90
30174;DHT22;16985;50.814;8.530;2024-01-15T13:41:20;1.80;99.90
30174;DHT22;16985;50.814;8.530;2024-01-15T13:43:54;1.80;99.90
30174;DHT22;16985;50.814;8.530;2024-01-15T13:46:24;1.70;99.90
30174;DHT22;16985;50.814;8.530;2024-01-15T13:48:55;1.70;99.90
30174;DHT22;16985;50.814;8.530;2024-01-15T13:51:24;1.70;99.90
30174;DHT22;16985;50.814;8.530;2024-01-15T13:53:50;1.70;99.90
30174;DHT22;16985;50.814;8.530;2024-01-15T13:56:17;1.70;99.90
30174;DHT22;16985;50.814;8.530;2024-01-15T13:58:42;1.70;99.90
30174;DHT22;16985;50.814;8.530;2024-01-15T14:01:09;1.70;99.90
30174;DHT22;16985;50.814;8.530;2024-01-15T14:03:36;1.70;99.90
30174;DHT22;16985;50.814;8.530;2024-01-15T14:06:01;1.70;99.90
30174;DHT22;16985;50.814;8.530;2024-01-15T14:08:35;1.70;99.90
30174;DHT22;16985;50.814;8.530;2024-01-15T14:11:03;1.70;99.90
30174;DHT22;16985;50.814;8.530;2024-01-15T14:13:29;1.60;99.90
30174;DHT22;16985;50.814;8.530;2024-01-15T14:15:55;1.60;99.90
30174;DHT22;16985;50.814;8.530;2024-01-15T14:18:21;1.60;99.90
30174;DHT22;16985;50.814;8.530;2024-01-15T14:20:47;1.60;99.90
30174;DHT22;16985;50.814;8.530;2024-01-15T14:23:13;1.60;99.90
30174;DHT22;16985;50.814;8.530;2024-01-15T14:25:39;1.60;99.90
30174;DHT22;16985;50.814;8.530;2024-01-15T14:28:05;1.60;99.90
30174;DHT22;16985;50.814;8.530;2024-01-15T14:30:32;1.60;99.90
30174;DHT22;16985;50.814;8.530;2024-01-15T14:32:58;1.60;99.90
30174;DHT22;16985;50.814;8.530;2024-01-15T14:35:23;1.60;99.90
30174;DHT22;16985;50.814;8.530;2024-01-15T14:37:49;1.60;99.90
30174;DHT22;16985;50.814;8.530;2024-01-15T14:40:15;1.50;99.90
30174;DHT22;16985;50.814;8.530;2024-01-15T14:42:41;1.50;99.90
30174;DHT22;16985;50.814;8.530;2024-01-15T14:45:08;1.50;99.90
30174;DHT22;16985;50.814;8.530;2024-01-15T14:47:40;1.50;99.90
30174;DHT22;16985;50.814;8.530;2024-01-15T14:50:07;1.50;99.90
30174;DHT22;16985;50.814;8.530;2024-01-15T14:52:34;1.50;99.90
30174;DHT22;16985;50.814;8.530;2024-01-15T14:55:00;1.50;99.90
30174;DHT22;16985;50.814;8.530;2024-01-15T14:57:26;1.50;99.90
30174;DHT22;16985;50.814;8.530;2024-01-15T14:59:52;1.50;99.90
30174;DHT22;16985;50.814;8.530;2024-01-15T15:02:18;1.50;99.90
30174;DHT22;16985;50.814;8.530;2024-01-15T15:04:44;1.50;99.90
30174;DHT22;16985;50.814;8.530;2024-01-15T15:07:10;1.50;99.90
30174;DHT22;16985;50.814;8.530;2024-01-15T15:09:36;1.40;99.90
30174;DHT22;16985;50.814;8.530;2024-01-15T15:12:06;1.40;99.90
30174;DHT22;16985;50.814;8.530;2024-01-15T15:14:32;1.40;99.90
30174;DHT22;16985;50.814;8.530;2024-01-15T15:17:06;1.40;99.90
30174;DHT22;16985;50.814;8.530;2024-01-15T15:19:32;1.30;99.90
30174;DHT22;16985;50.814;8.530;2024-01-15T15:21:59;1.40;99.90
30174;DHT22;16985;50.814;8.530;2024-01-15T15:24:25;1.40;99.90
30174;DHT22;16985;50.814;8.530;2024-01-15T15:26:51;1.30;99.90
30174;DHT22;16985;50.814;8.530;2024-01-15T15:29:17;1.40;99.90
30174;DHT22;16985;50.814;8.530;2024-01-15T15:31:44;1.20;99.90
30174;DHT22;16985;50.814;8.530;2024-01-15T15:34:10;1.30;99.90
30174;DHT22;16985;50.814;8.530;2024-01-15T15:36:36;1.30;99.90
30174;DHT22;16985;50.814;8.530;2024-01-15T15:39:02;1.30;99.90
30174;DHT22;16985;50.814;8.530;2024-01-15T15:41:28;1.30;99.90
30174;DHT22;16985;50.814;8.530;2024-01-15T15:43:54;1.30;99.90
30174;DHT22;16985;50.814;8.530;2024-01-15T15:46:21;1.20;99.90
30174;DHT22;16985;50.814;8.530;2024-01-15T15:48:47;1.20;99.90
30174;DHT22;16985;50.814;8.530;2024-01-15T15:51:13;1.20;99.90
30174;DHT22;16985;50.814;8.530;2024-01-15T15:53:39;1.20;99.90
30174;DHT22;16985;50.814;8.530;2024-01-15T15:56:05;1.20;99.90